Home   Weather   Germany   Arnstadt   Past weeks
Flag for Germany

Past Weather in Arnstadt, Thuringia, Germany — Yesterday and Last 2 Weeks

Currently: 32 °F. Clear. (Weather station: Erfurt-Bindersleben, Germany). See more current weather

Past Weather in Arnstadt — Graph

°F

Arnstadt Temperature Yesterday

Maximum temperature yesterday: 39 °F (at 12:50 pm)
Minimum temperature yesterday: 21 °F (at 3:50 am)
Average temperature yesterday: 30 °F

High & Low Weather Summary for the Past Weeks

 TemperatureHumidityPressure
High64 °F (Feb 21, 3:50 pm)100% (Feb 26, 10:50 am)30.66 "Hg (Feb 26, 10:50 am)
Low21 °F (Mar 6, 3:50 am)34% (Feb 21, 4:20 pm)29.98 "Hg (Mar 4, 3:50 pm)
Average42 °F77%30.36 "Hg
* Reported Feb 20 6:20 pm — Mar 7 6:50 pm, Arnstadt. Weather by CustomWeather, © 2021

Note: Actual official high and low records may vary slightly from our data, if they occured in-between our weather recording intervals... More about our weather records

Arnstadt Weather History for the Previous 24 Hours

Scroll right to see more
 ConditionsComfort  
Time TempWeatherWind HumidityBarometerVisibility
6:50 pm
Sun, Mar 7
32 °FPassing clouds.7 mph75%30.12 "HgN/A
6:20 pm32 °FPassing clouds.9 mph75%30.12 "HgN/A
5:50 pm34 °FScattered clouds.12 mph70%30.12 "HgN/A
5:20 pm36 °FPassing clouds.13 mph70%30.09 "HgN/A
4:50 pm37 °FPassing clouds.15 mph65%30.12 "HgN/A
4:20 pm37 °FPassing clouds.15 mph65%30.12 "HgN/A
3:50 pm39 °FScattered clouds.14 mph65%30.12 "HgN/A
3:20 pm41 °FPassing clouds.12 mph61%30.12 "HgN/A
2:50 pm41 °FPassing clouds.10 mph61%30.12 "HgN/A
2:20 pm41 °FPassing clouds.9 mph57%30.12 "HgN/A
1:20 pm41 °FPassing clouds.7 mph57%30.18 "HgN/A
12:50 pm39 °FPassing clouds.8 mph56%30.18 "HgN/A
12:20 pm39 °FPassing clouds.7 mph56%30.21 "HgN/A
11:50 am39 °FPassing clouds.7 mph56%30.21 "HgN/A
11:20 am37 °FPassing clouds.5 mph65%30.21 "HgN/A
10:50 am37 °FPassing clouds.9 mph65%30.21 "HgN/A
10:20 am36 °FSunny.9 mph70%30.24 "Hg10 mi
9:50 am32 °FSunny.8 mph80%30.24 "Hg10 mi
9:20 am30 °FSunny.9 mph86%30.24 "Hg10 mi
8:50 am28 °FSunny.9 mph86%30.24 "Hg10 mi
8:20 am27 °FSunny.9 mph86%30.24 "Hg10 mi
7:50 am27 °FSunny.10 mph86%30.24 "Hg10 mi
7:20 am23 °FSunny.10 mph93%30.24 "Hg10 mi
6:50 am21 °FSunny.9 mph93%30.24 "Hg10 mi
6:20 am21 °FClear.10 mph86%30.24 "Hg10 mi
5:50 am21 °FClear.10 mph93%30.24 "Hg10 mi
5:20 am23 °FClear.8 mph86%30.24 "Hg10 mi
4:50 am25 °FClear.9 mph80%30.27 "Hg10 mi
4:20 am23 °FClear.8 mph86%30.27 "Hg10 mi
3:50 am25 °FClear.9 mph86%30.27 "Hg10 mi
3:20 am25 °FClear.9 mph86%30.30 "Hg10 mi
2:50 am25 °FClear.9 mph86%30.30 "Hg10 mi
2:20 am23 °FClear.9 mph86%30.33 "Hg10 mi
1:50 am25 °FClear.9 mph86%30.33 "Hg10 mi
1:20 am27 °FPassing clouds.9 mph80%30.36 "HgN/A
12:50 am27 °FPassing clouds.7 mph80%30.36 "HgN/A
12:20 am27 °FPassing clouds.8 mph80%30.36 "HgN/A
11:50 pm
Sat, Mar 6
25 °FClear.7 mph86%30.36 "Hg10 mi
11:20 pm27 °FClear.7 mph80%30.36 "Hg10 mi
10:50 pm28 °FClear.7 mph80%30.36 "Hg10 mi
10:20 pm28 °FClear.6 mph80%30.39 "Hg10 mi
9:50 pm28 °FClear.6 mph80%30.39 "Hg10 mi
9:20 pm30 °FClear.5 mph80%30.39 "Hg10 mi
8:50 pm28 °FClear.6 mph80%30.39 "Hg10 mi
8:20 pm34 °FClear.5 mph70%30.39 "Hg10 mi
Weather by CustomWeather, © 2021

See weather overview